Time;durP1;ratioP1;P1;durP2;ratioP2;P2;SDS_P1;SDS_P2;PMS_P1;PMS_P2;Temp;Humidity;BMP_temperature;BMP_pressure;BME280_temperature;BME280_humidity;BME280_pressure;Samples;Min_cycle;Max_cycle;Signal;HPM_P1;HPM_P2
2022/02/14 00:02:24;;;;;;;1.67;1.58;;;16.10;62.90;;;;;;5047888;28;20452;-26
2022/02/14 00:04:50;;;;;;;1.05;1.05;;;16.20;63.00;;;;;;5048120;28;20053;-26
2022/02/14 00:07:16;;;;;;;1.08;1.08;;;16.10;62.90;;;;;;5049806;28;20370;-26
2022/02/14 00:09:41;;;;;;;1.10;1.10;;;16.10;62.90;;;;;;5041099;28;20049;-26
2022/02/14 00:12:07;;;;;;;1.10;1.00;;;16.10;63.00;;;;;;5051407;28;20440;-26
2022/02/14 00:14:33;;;;;;;0.93;0.93;;;16.10;62.90;;;;;;5049935;28;20047;-26
2022/02/14 00:16:58;;;;;;;1.20;1.20;;;16.10;62.90;;;;;;5051246;28;20051;-26
2022/02/14 00:19:24;;;;;;;1.00;1.00;;;16.20;63.00;;;;;;5054470;28;20083;-27
2022/02/14 00:21:50;;;;;;;1.55;1.45;;;16.20;62.70;;;;;;5046316;28;20516;-26
2022/02/14 00:24:16;;;;;;;1.10;1.10;;;16.20;62.80;;;;;;5053409;28;20098;-27
2022/02/14 00:26:42;;;;;;;1.13;1.13;;;16.20;63.20;;;;;;5057634;28;20045;-26
2022/02/14 00:29:07;;;;;;;0.90;0.90;;;16.10;62.70;;;;;;5050145;28;20045;-26
2022/02/14 00:31:33;;;;;;;1.00;1.00;;;16.10;63.50;;;;;;5053648;28;20044;-26
2022/02/14 00:33:59;;;;;;;1.08;1.08;;;16.10;62.80;;;;;;5063732;28;20056;-26
2022/02/14 00:36:24;;;;;;;1.10;1.10;;;16.10;62.80;;;;;;5064824;28;20048;-26
2022/02/14 00:38:50;;;;;;;0.90;0.90;;;16.10;62.70;;;;;;5057314;28;20068;-26
2022/02/14 00:41:16;;;;;;;1.98;1.30;;;16.10;62.70;;;;;;5049184;28;20045;-26
2022/02/14 00:43:41;;;;;;;1.02;1.02;;;16.10;62.70;;;;;;5045408;28;20059;-26
2022/02/14 00:46:07;;;;;;;0.98;0.98;;;16.10;62.80;;;;;;5067235;28;20497;-27
2022/02/14 00:48:32;;;;;;;0.90;0.90;;;16.10;62.70;;;;;;5057823;28;20052;-26
2022/02/14 00:50:58;;;;;;;0.80;0.80;;;16.10;62.70;;;;;;5056943;28;20481;-26
2022/02/14 00:53:24;;;;;;;1.00;1.00;;;16.10;62.70;;;;;;5054239;28;20418;-26
2022/02/14 00:55:50;;;;;;;0.82;0.82;;;16.10;62.60;;;;;;5092662;28;20048;-26
2022/02/14 00:58:15;;;;;;;1.10;1.10;;;16.10;62.60;;;;;;5077719;28;20518;-26
2022/02/14 01:00:41;;;;;;;0.85;0.85;;;16.10;62.50;;;;;;5062617;28;20424;-26
2022/02/14 01:03:07;;;;;;;0.90;0.90;;;16.20;62.60;;;;;;5037747;28;20041;-27
2022/02/14 01:05:32;;;;;;;1.00;1.00;;;16.10;62.40;;;;;;5075281;28;20052;-26
2022/02/14 01:07:58;;;;;;;0.73;0.73;;;16.10;62.40;;;;;;5076654;28;20045;-27
2022/02/14 01:10:24;;;;;;;0.63;0.63;;;16.10;62.50;;;;;;5041841;28;20056;-27
2022/02/14 01:12:49;;;;;;;1.27;0.98;;;16.10;62.40;;;;;;5036954;28;20052;-26
2022/02/14 01:15:15;;;;;;;0.77;0.77;;;16.10;62.40;;;;;;5061057;28;20056;-26
2022/02/14 01:17:41;;;;;;;0.77;0.77;;;16.10;62.60;;;;;;5055031;28;20059;-26
2022/02/14 01:20:08;;;;;;;0.70;0.70;;;16.10;62.60;;;;;;5057348;28;20040;-26
2022/02/14 01:22:34;;;;;;;0.70;0.70;;;16.10;62.40;;;;;;5056905;28;20450;-26
2022/02/14 01:25:00;;;;;;;0.80;0.80;;;16.00;62.50;;;;;;5046220;28;20107;-26
2022/02/14 01:27:26;;;;;;;0.90;0.90;;;16.10;62.50;;;;;;5054663;28;20051;-26
2022/02/14 01:29:52;;;;;;;0.80;0.80;;;16.10;62.50;;;;;;5048460;28;20041;-26
2022/02/14 01:32:22;;;;;;;0.80;0.80;;;16.00;62.50;;;;;;5037069;28;20498;-26
2022/02/14 01:34:51;;;;;;;0.82;0.82;;;16.00;62.50;;;;;;5065498;28;20037;-27
2022/02/14 01:37:17;;;;;;;1.02;1.02;;;16.00;62.60;;;;;;5050360;28;20098;-27
2022/02/14 01:39:42;;;;;;;0.63;0.63;;;15.90;62.70;;;;;;5036238;28;20037;-26
2022/02/14 01:42:08;;;;;;;0.80;0.80;;;15.90;62.70;;;;;;5036959;28;20068;-26
2022/02/14 01:44:40;;;;;;;0.52;0.52;;;15.90;62.90;;;;;;5046909;28;20089;-26
2022/02/14 01:47:10;;;;;;;0.70;0.70;;;15.90;62.80;;;;;;5016617;28;20422;-27
2022/02/14 01:49:36;;;;;;;0.63;0.63;;;16.00;63.20;;;;;;5031090;28;20056;-26
2022/02/14 01:52:02;;;;;;;1.25;0.80;;;15.90;62.80;;;;;;5015992;28;20046;-27
2022/02/14 01:54:27;;;;;;;0.50;0.50;;;15.90;62.80;;;;;;5040453;28;20033;-27
2022/02/14 01:56:53;;;;;;;0.90;0.90;;;15.90;62.70;;;;;;5036081;28;20042;-26
2022/02/14 01:59:19;;;;;;;0.80;0.80;;;16.00;62.70;;;;;;5031378;28;20092;-26
2022/02/14 02:01:45;;;;;;;0.70;0.70;;;15.90;62.60;;;;;;5024826;28;20099;-26
2022/02/14 02:04:13;;;;;;;0.80;0.80;;;15.90;62.70;;;;;;5047811;28;20048;-26
2022/02/14 02:06:40;;;;;;;0.88;0.88;;;15.90;62.80;;;;;;5043696;28;20417;-26
2022/02/14 02:09:06;;;;;;;0.70;0.70;;;15.90;62.70;;;;;;5034521;28;20111;-26
2022/02/14 02:14:20;;;;;;;0.70;0.70;;;16.00;62.70;;;;;;5021778;28;20064;-27
2022/02/14 02:16:46;;;;;;;0.70;0.70;;;15.90;62.70;;;;;;5035604;28;20041;-26
2022/02/14 02:19:12;;;;;;;0.80;0.80;;;15.90;62.70;;;;;;5004820;28;20050;-26
2022/02/14 02:21:37;;;;;;;0.70;0.70;;;15.90;62.70;;;;;;4996572;28;20521;-27
2022/02/14 02:24:03;;;;;;;1.27;1.20;;;15.90;62.70;;;;;;5004198;28;20062;-27
2022/02/14 02:26:30;;;;;;;0.60;0.60;;;15.90;62.90;;;;;;5011660;28;20589;-26
2022/02/14 02:28:56;;;;;;;0.90;0.90;;;15.90;62.80;;;;;;5004258;28;20042;-26
2022/02/14 02:31:21;;;;;;;0.90;0.90;;;15.90;62.90;;;;;;4996435;28;20046;-26
2022/02/14 02:33:47;;;;;;;0.60;0.60;;;15.80;62.90;;;;;;4999061;28;20038;-27
2022/02/14 02:36:12;;;;;;;0.68;0.68;;;15.80;62.90;;;;;;5021817;28;20041;-26
2022/02/14 02:38:38;;;;;;;0.70;0.70;;;15.80;62.90;;;;;;4996037;28;20042;-26
2022/02/14 02:41:03;;;;;;;0.75;0.75;;;15.80;62.80;;;;;;4996193;28;20066;-26
2022/02/14 02:43:29;;;;;;;0.60;0.60;;;15.90;63.40;;;;;;4996311;28;20054;-27
2022/02/14 02:45:56;;;;;;;0.70;0.60;;;15.80;62.90;;;;;;5032745;28;20048;-26
2022/02/14 02:48:22;;;;;;;0.50;0.50;;;15.80;62.90;;;;;;5035776;28;20050;-27
2022/02/14 02:51:02;;;;;;;0.77;0.77;;;15.80;63.00;;;;;;5034958;28;20493;-26
2022/02/14 02:53:29;;;;;;;0.68;0.68;;;15.80;62.90;;;;;;5005568;28;20058;-26
2022/02/14 02:55:54;;;;;;;0.60;0.60;;;15.90;62.80;;;;;;5014333;28;20057;-26
2022/02/14 02:58:20;;;;;;;0.50;0.50;;;15.90;62.80;;;;;;5006775;28;20046;-26
2022/02/14 03:00:47;;;;;;;0.57;0.57;;;15.90;62.60;;;;;;5002346;28;20104;-26
2022/02/14 03:03:12;;;;;;;0.60;0.60;;;15.90;62.70;;;;;;5015929;28;20046;-26
2022/02/14 03:05:38;;;;;;;0.45;0.45;;;15.80;62.80;;;;;;5031356;28;20513;-26
2022/02/14 03:08:04;;;;;;;0.65;0.60;;;15.90;62.90;;;;;;5034412;28;20041;-27
2022/02/14 03:10:29;;;;;;;0.60;0.60;;;15.90;62.70;;;;;;5006227;28;20489;-26
2022/02/14 03:12:55;;;;;;;0.60;0.52;;;15.90;62.80;;;;;;4995512;28;20410;-26
2022/02/14 03:15:20;;;;;;;0.50;0.50;;;15.90;62.70;;;;;;5000715;28;20051;-26
2022/02/14 03:17:46;;;;;;;0.80;0.80;;;15.90;62.80;;;;;;5022102;28;20053;-26
2022/02/14 03:20:11;;;;;;;0.60;0.60;;;15.80;62.90;;;;;;5021757;28;20475;-26
2022/02/14 03:22:37;;;;;;;0.60;0.60;;;15.90;62.90;;;;;;5030481;28;20085;-26
2022/02/14 03:25:03;;;;;;;0.60;0.60;;;15.80;62.90;;;;;;5019120;28;20057;-26
2022/02/14 03:27:29;;;;;;;0.55;0.55;;;15.80;63.00;;;;;;5015458;28;20041;-26
2022/02/14 03:29:55;;;;;;;0.50;0.50;;;15.80;63.10;;;;;;5014922;28;20038;-26
2022/02/14 03:32:20;;;;;;;0.70;0.50;;;15.80;63.20;;;;;;5015402;28;20048;-26
2022/02/14 03:34:46;;;;;;;1.25;0.70;;;15.80;63.20;;;;;;5031952;28;20040;-26
2022/02/14 03:37:11;;;;;;;0.73;0.63;;;15.80;63.20;;;;;;5035643;28;20041;-26
2022/02/14 03:39:37;;;;;;;0.80;0.57;;;15.80;63.40;;;;;;5032178;28;20133;-26
2022/02/14 03:42:03;;;;;;;0.70;0.60;;;15.80;63.20;;;;;;5014807;28;20114;-26
2022/02/14 03:44:28;;;;;;;0.65;0.65;;;15.80;63.30;;;;;;5054102;28;20068;-26
2022/02/14 03:46:54;;;;;;;0.73;0.60;;;15.70;63.30;;;;;;5030292;28;20049;-26
2022/02/14 03:49:20;;;;;;;0.98;0.60;;;15.80;63.20;;;;;;5030925;28;20517;-26
2022/02/14 03:51:45;;;;;;;0.63;0.57;;;15.80;63.20;;;;;;5037107;28;20079;-26
2022/02/14 03:54:11;;;;;;;0.85;0.50;;;15.80;63.20;;;;;;5035672;28;20057;-26
2022/02/14 03:56:36;;;;;;;0.73;0.60;;;15.70;63.40;;;;;;5033690;28;20111;-26
2022/02/14 03:59:02;;;;;;;0.68;0.60;;;15.70;63.40;;;;;;5019612;28;20251;-26
2022/02/14 04:01:28;;;;;;;0.60;0.50;;;15.70;63.20;;;;;;5018978;28;20061;-26
2022/02/14 04:03:53;;;;;;;0.55;0.50;;;15.70;63.60;;;;;;5046810;28;20108;-26
2022/02/14 04:06:19;;;;;;;0.80;0.80;;;15.70;63.50;;;;;;5044825;28;20041;-26
2022/02/14 04:08:44;;;;;;;0.65;0.57;;;15.60;63.60;;;;;;5018782;28;20045;-26
2022/02/14 04:11:10;;;;;;;0.50;0.40;;;15.60;63.50;;;;;;5018257;28;20057;-26
2022/02/14 04:13:36;;;;;;;1.23;0.55;;;15.60;63.60;;;;;;5034663;28;20098;-26
2022/02/14 04:16:01;;;;;;;0.60;0.60;;;15.60;63.70;;;;;;5022649;28;20502;-27
2022/02/14 04:18:27;;;;;;;0.77;0.70;;;15.70;63.50;;;;;;5038261;28;20053;-26
2022/02/14 04:20:53;;;;;;;0.70;0.70;;;15.70;63.60;;;;;;5037580;28;20046;-26
2022/02/14 04:23:18;;;;;;;1.40;0.77;;;15.70;63.60;;;;;;5041186;28;20053;-26
2022/02/14 04:25:44;;;;;;;0.90;0.60;;;15.70;63.50;;;;;;5058231;28;20043;-26
2022/02/14 04:28:09;;;;;;;0.85;0.80;;;15.60;63.60;;;;;;5057656;28;20075;-26
2022/02/14 04:30:35;;;;;;;0.55;0.55;;;15.60;63.80;;;;;;5033177;28;20053;-26
2022/02/14 04:33:01;;;;;;;0.40;0.40;;;15.60;63.80;;;;;;5057177;28;20048;-26
2022/02/14 04:35:30;;;;;;;0.50;0.50;;;15.60;63.90;;;;;;5049901;28;20049;-27
2022/02/14 04:37:59;;;;;;;0.60;0.60;;;15.60;63.80;;;;;;5037234;28;20088;-25
2022/02/14 04:40:28;;;;;;;0.63;0.63;;;15.60;63.90;;;;;;5038035;28;20168;-26
2022/02/14 04:42:55;;;;;;;0.75;0.60;;;15.60;63.80;;;;;;5037438;28;20430;-26
2022/02/14 04:45:21;;;;;;;0.65;0.65;;;15.60;63.60;;;;;;5025397;28;20096;-26
2022/02/14 04:47:46;;;;;;;0.50;0.50;;;15.70;63.70;;;;;;5018033;28;20037;-26
2022/02/14 04:50:12;;;;;;;0.88;0.63;;;15.60;63.80;;;;;;5044269;28;20049;-26
2022/02/14 04:52:38;;;;;;;0.70;0.70;;;15.70;63.60;;;;;;5057582;28;20586;-26
2022/02/14 04:55:04;;;;;;;0.60;0.60;;;15.70;63.50;;;;;;5057029;28;20044;-26
2022/02/14 04:57:30;;;;;;;0.55;0.52;;;15.70;63.40;;;;;;5057496;28;20128;-26
2022/02/14 04:59:56;;;;;;;0.90;0.68;;;15.70;63.40;;;;;;5044881;28;20069;-26
2022/02/14 05:02:21;;;;;;;0.52;0.50;;;15.60;63.50;;;;;;5032791;28;20053;-26
2022/02/14 05:04:47;;;;;;;1.50;0.60;;;15.60;63.70;;;;;;5037658;28;20049;-26
2022/02/14 05:07:12;;;;;;;0.70;0.70;;;15.70;63.50;;;;;;5024592;28;20133;-26
2022/02/14 05:09:38;;;;;;;0.93;0.40;;;15.70;63.60;;;;;;5035053;28;20049;-26
2022/02/14 05:12:03;;;;;;;0.80;0.80;;;15.70;63.60;;;;;;5048696;28;20048;-26
2022/02/14 05:14:29;;;;;;;0.52;0.45;;;15.60;63.40;;;;;;5034998;28;20489;-26
2022/02/14 05:16:55;;;;;;;0.57;0.57;;;15.70;63.50;;;;;;5030800;28;20386;-26
2022/02/14 05:19:20;;;;;;;0.73;0.68;;;15.70;63.40;;;;;;5036119;28;20046;-26
2022/02/14 05:21:46;;;;;;;0.98;0.73;;;15.70;63.40;;;;;;5024788;28;20533;-26
2022/02/14 05:24:12;;;;;;;0.68;0.55;;;15.70;63.60;;;;;;5025901;28;20037;-26
2022/02/14 05:26:38;;;;;;;0.70;0.70;;;15.60;63.60;;;;;;5017477;28;20394;-26
2022/02/14 05:29:04;;;;;;;0.60;0.60;;;15.70;63.60;;;;;;5020454;28;20045;-26
2022/02/14 05:31:29;;;;;;;0.40;0.40;;;15.70;63.60;;;;;;5036964;28;20128;-26
2022/02/14 05:33:55;;;;;;;0.88;0.57;;;15.60;63.50;;;;;;5024376;28;20073;-26
2022/02/14 05:36:22;;;;;;;0.80;0.60;;;15.60;63.60;;;;;;5033816;28;20041;-26
2022/02/14 05:38:47;;;;;;;0.43;0.43;;;15.70;63.60;;;;;;5026716;28;20054;-27
2022/02/14 05:41:13;;;;;;;0.73;0.50;;;15.70;63.60;;;;;;5055824;28;20048;-26
2022/02/14 05:43:39;;;;;;;0.50;0.40;;;15.70;63.50;;;;;;5056823;28;20077;-26
2022/02/14 05:46:04;;;;;;;0.47;0.30;;;15.70;63.60;;;;;;5040482;28;20073;-26
2022/02/14 05:48:30;;;;;;;0.50;0.50;;;15.70;63.50;;;;;;5021920;28;20048;-26
2022/02/14 05:50:56;;;;;;;0.73;0.60;;;15.70;63.30;;;;;;5053111;28;20050;-26
2022/02/14 05:53:21;;;;;;;0.47;0.47;;;15.70;63.30;;;;;;5036569;28;20421;-26
2022/02/14 05:55:47;;;;;;;0.50;0.50;;;15.60;63.40;;;;;;5036589;28;20095;-26
2022/02/14 05:58:13;;;;;;;0.65;0.63;;;15.60;63.50;;;;;;5036276;28;20044;-26
2022/02/14 06:00:38;;;;;;;0.40;0.40;;;15.70;63.40;;;;;;5067885;28;20500;-26
2022/02/14 06:03:04;;;;;;;0.50;0.38;;;15.70;63.30;;;;;;5075599;28;20043;-26
2022/02/14 06:05:29;;;;;;;0.30;0.30;;;15.70;63.40;;;;;;5073797;28;20504;-26
2022/02/14 06:07:56;;;;;;;0.47;0.47;;;15.60;63.40;;;;;;5047939;28;20049;-26
2022/02/14 06:10:22;;;;;;;0.63;0.30;;;15.70;63.40;;;;;;5068407;28;20124;-26
2022/02/14 06:12:47;;;;;;;0.60;0.50;;;15.60;63.40;;;;;;5047899;28;20065;-26
2022/02/14 06:15:13;;;;;;;0.60;0.60;;;15.70;63.50;;;;;;5055134;28;20037;-26
2022/02/14 06:17:38;;;;;;;0.40;0.40;;;15.60;63.40;;;;;;5049284;28;20079;-26
2022/02/14 06:20:05;;;;;;;0.88;0.55;;;15.60;63.40;;;;;;5060877;28;20068;-26
2022/02/14 06:22:30;;;;;;;0.40;0.40;;;15.60;63.40;;;;;;5075606;28;20044;-26
2022/02/14 06:24:56;;;;;;;1.08;0.40;;;15.60;63.50;;;;;;5055725;28;20131;-26
2022/02/14 06:27:21;;;;;;;1.02;0.50;;;15.60;63.40;;;;;;5049533;28;20493;-26
2022/02/14 06:29:47;;;;;;;0.70;0.50;;;15.60;63.50;;;;;;5051766;28;20075;-26
2022/02/14 06:32:14;;;;;;;0.30;0.30;;;15.60;63.50;;;;;;5051285;28;20041;-26
2022/02/14 06:34:40;;;;;;;0.50;0.50;;;15.60;63.20;;;;;;5052519;28;20375;-26
2022/02/14 06:37:06;;;;;;;0.45;0.38;;;15.60;63.40;;;;;;5051468;28;20049;-26
2022/02/14 06:39:32;;;;;;;0.50;0.40;;;15.50;63.50;;;;;;5054053;28;20037;-27
2022/02/14 06:41:58;;;;;;;0.85;0.40;;;15.50;63.50;;;;;;5043835;28;20045;-26
2022/02/14 06:44:24;;;;;;;0.40;0.40;;;15.50;63.50;;;;;;5046681;28;20046;-27
2022/02/14 06:46:51;;;;;;;0.60;0.60;;;15.60;63.60;;;;;;5036025;28;20124;-26
2022/02/14 06:49:17;;;;;;;0.60;0.50;;;15.60;63.40;;;;;;5040931;28;20148;-26
2022/02/14 06:51:43;;;;;;;0.70;0.70;;;15.60;63.40;;;;;;5069544;28;20049;-26
2022/02/14 06:54:09;;;;;;;0.45;0.43;;;15.50;63.30;;;;;;5035060;28;20049;-26
2022/02/14 06:56:34;;;;;;;0.52;0.52;;;15.60;63.40;;;;;;5035421;28;20529;-26
2022/02/14 06:59:00;;;;;;;0.50;0.50;;;15.50;63.40;;;;;;5052875;28;20049;-26
2022/02/14 07:01:25;;;;;;;0.45;0.45;;;15.50;63.50;;;;;;5075277;28;20381;-26
2022/02/14 07:03:51;;;;;;;0.30;0.30;;;15.50;63.50;;;;;;5075485;28;20045;-26
2022/02/14 07:06:17;;;;;;;0.50;0.30;;;15.50;63.40;;;;;;5058419;28;20044;-26
2022/02/14 07:08:44;;;;;;;0.55;0.45;;;15.50;63.40;;;;;;5034996;28;20041;-26
2022/02/14 07:11:10;;;;;;;0.40;0.40;;;15.50;63.50;;;;;;5070771;28;20125;-26
2022/02/14 07:13:35;;;;;;;1.10;0.38;;;15.50;63.60;;;;;;5057948;28;20050;-26
2022/02/14 07:16:01;;;;;;;1.58;0.50;;;15.50;63.60;;;;;;5039361;28;20393;-26
2022/02/14 07:18:27;;;;;;;1.08;0.32;;;15.50;63.50;;;;;;5055131;28;20057;-26
2022/02/14 07:20:53;;;;;;;0.60;0.40;;;15.50;63.70;;;;;;5065017;28;20044;-26
2022/02/14 07:23:18;;;;;;;0.45;0.32;;;15.50;63.70;;;;;;5052156;28;20063;-26
2022/02/14 07:25:44;;;;;;;0.40;0.35;;;15.50;63.60;;;;;;5058735;28;20059;-26
2022/02/14 07:28:09;;;;;;;1.88;0.35;;;15.50;63.50;;;;;;5058479;28;20417;-26
2022/02/14 07:30:35;;;;;;;0.52;0.50;;;15.50;63.40;;;;;;5051348;28;20512;-26
2022/02/14 07:33:01;;;;;;;1.13;0.43;;;15.50;63.60;;;;;;5055023;28;20037;-26
2022/02/14 07:35:26;;;;;;;0.63;0.40;;;15.50;63.70;;;;;;5057468;28;20566;-26
2022/02/14 07:37:52;;;;;;;0.63;0.40;;;15.50;63.60;;;;;;5058614;28;20041;-26
2022/02/14 07:40:17;;;;;;;0.30;0.25;;;15.50;63.50;;;;;;5063492;28;20090;-27
2022/02/14 07:42:43;;;;;;;3.80;0.60;;;15.50;63.40;;;;;;5045066;28;20065;-26
2022/02/14 07:45:09;;;;;;;0.65;0.35;;;15.50;63.30;;;;;;5051656;28;20064;-26
2022/02/14 07:47:35;;;;;;;0.95;0.65;;;15.50;63.70;;;;;;5054985;28;20041;-26
2022/02/14 07:50:00;;;;;;;2.80;0.65;;;15.40;63.80;;;;;;5058604;28;20063;-26
2022/02/14 07:52:26;;;;;;;0.95;0.30;;;15.40;64.20;;;;;;5056896;28;20045;-26
2022/02/14 07:54:53;;;;;;;2.70;0.50;;;15.40;64.30;;;;;;5056845;28;20045;-26
2022/02/14 07:57:19;;;;;;;2.28;0.70;;;15.40;64.40;;;;;;5057952;28;20080;-26
2022/02/14 07:59:44;;;;;;;1.83;0.77;;;15.40;64.40;;;;;;5058162;28;20045;-26
2022/02/14 08:02:10;;;;;;;3.97;0.60;;;15.40;64.30;;;;;;5048666;28;20520;-26
2022/02/14 08:04:36;;;;;;;2.53;0.50;;;15.40;64.40;;;;;;5058558;28;20045;-26
2022/02/14 08:07:04;;;;;;;0.52;0.52;;;15.40;64.50;;;;;;5048001;28;20049;-26
2022/02/14 08:09:30;;;;;;;2.05;0.70;;;15.40;64.40;;;;;;5031977;28;20545;-26
2022/02/14 08:11:56;;;;;;;3.33;0.55;;;15.40;64.30;;;;;;5051500;28;20417;-26
2022/02/14 08:14:21;;;;;;;1.55;0.50;;;15.50;64.50;;;;;;5036943;28;20056;-26
2022/02/14 08:16:47;;;;;;;2.22;0.50;;;15.40;64.30;;;;;;5052399;28;20524;-26
2022/02/14 08:19:12;;;;;;;0.60;0.40;;;15.50;64.10;;;;;;5056829;28;20509;-26
2022/02/14 08:21:38;;;;;;;0.80;0.50;;;15.50;64.20;;;;;;5052223;28;20056;-26
2022/02/14 08:24:04;;;;;;;1.13;0.57;;;15.50;64.20;;;;;;5057009;28;20125;-23
2022/02/14 08:26:31;;;;;;;1.75;0.30;;;15.50;64.00;;;;;;5057356;28;20087;-26
2022/02/14 08:28:57;;;;;;;2.80;0.60;;;15.50;64.20;;;;;;5054957;28;20493;-26
2022/02/14 08:31:22;;;;;;;1.80;0.57;;;15.40;64.20;;;;;;5054728;28;20463;-26
2022/02/14 08:33:48;;;;;;;1.15;0.57;;;15.40;64.30;;;;;;5053551;28;20037;-26
2022/02/14 08:36:14;;;;;;;1.02;0.30;;;15.40;64.30;;;;;;5050119;28;20048;-26
2022/02/14 08:38:39;;;;;;;1.60;0.50;;;15.40;64.30;;;;;;5048034;28;20387;-26
2022/02/14 08:41:05;;;;;;;2.08;0.50;;;15.40;64.50;;;;;;5053432;28;20051;-26
2022/02/14 08:43:31;;;;;;;1.38;0.80;;;15.30;64.50;;;;;;5056855;28;20118;-27
2022/02/14 08:45:57;;;;;;;1.80;0.47;;;15.40;64.40;;;;;;5056813;28;20037;-26
2022/02/14 08:48:23;;;;;;;0.75;0.38;;;15.40;64.30;;;;;;5054872;28;20044;-26
2022/02/14 08:50:49;;;;;;;1.95;0.40;;;15.50;64.20;;;;;;5055199;28;20045;-26
2022/02/14 08:53:17;;;;;;;0.88;0.43;;;15.50;64.20;;;;;;5068040;28;20050;-26
2022/02/14 08:55:43;;;;;;;1.20;0.30;;;15.60;63.80;;;;;;5056153;28;20486;-26
2022/02/14 08:58:08;;;;;;;1.70;0.60;;;15.60;63.70;;;;;;5054739;28;20073;-26
2022/02/14 09:00:34;;;;;;;1.05;0.50;;;15.60;63.50;;;;;;5050471;28;20087;-26
2022/02/14 09:03:00;;;;;;;0.77;0.47;;;15.70;63.70;;;;;;5056457;28;20124;-26
2022/02/14 09:05:26;;;;;;;0.80;0.50;;;15.70;63.60;;;;;;5054271;28;20558;-26
2022/02/14 09:07:52;;;;;;;0.60;0.60;;;15.70;63.60;;;;;;5056360;28;20060;-26
2022/02/14 09:10:17;;;;;;;1.05;0.50;;;15.60;63.70;;;;;;5055474;28;20501;-26
2022/02/14 09:12:46;;;;;;;1.17;0.70;;;15.60;63.70;;;;;;5055355;28;20044;-26
2022/02/14 09:15:11;;;;;;;0.75;0.50;;;15.60;63.80;;;;;;5055717;28;20041;-26
2022/02/14 09:17:37;;;;;;;1.92;0.40;;;15.70;63.70;;;;;;5053293;28;20621;-26
2022/02/14 09:20:03;;;;;;;0.82;0.30;;;15.70;63.60;;;;;;5053304;28;20167;-26
2022/02/14 09:22:30;;;;;;;1.65;0.50;;;15.60;63.70;;;;;;5054079;28;20128;-26
2022/02/14 09:24:56;;;;;;;0.90;0.30;;;15.60;63.80;;;;;;5056289;28;20045;-26
2022/02/14 09:27:21;;;;;;;0.63;0.40;;;15.60;63.80;;;;;;5055681;28;20102;-27
2022/02/14 09:29:47;;;;;;;0.40;0.32;;;15.60;63.80;;;;;;5055742;28;20986;-26
2022/02/14 09:32:13;;;;;;;0.70;0.47;;;15.60;63.90;;;;;;5054420;28;20041;-26
2022/02/14 09:34:38;;;;;;;0.60;0.55;;;15.70;63.80;;;;;;5055916;28;20047;-26
2022/02/14 09:37:04;;;;;;;1.40;0.38;;;15.70;63.80;;;;;;5053329;28;20106;-26
2022/02/14 09:39:30;;;;;;;0.52;0.43;;;15.60;63.80;;;;;;5042443;28;20048;-26
2022/02/14 09:41:59;;;;;;;0.13;0.13;;;15.60;63.70;;;;;;5056731;28;20101;-26
2022/02/14 09:44:25;;;;;;;1.33;0.40;;;15.60;63.50;;;;;;5054707;28;20398;-26
2022/02/14 09:46:51;;;;;;;2.08;0.40;;;15.60;63.60;;;;;;5047113;28;20060;-27
2022/02/14 09:49:17;;;;;;;0.30;0.30;;;15.70;63.70;;;;;;5056920;28;20048;-26
2022/02/14 09:51:42;;;;;;;0.73;0.30;;;15.70;63.70;;;;;;5033421;28;20051;-26
2022/02/14 09:54:08;;;;;;;0.32;0.32;;;15.70;63.60;;;;;;5036340;28;20095;-26
2022/02/14 09:56:35;;;;;;;0.55;0.45;;;15.70;63.60;;;;;;5016260;28;20060;-26
2022/02/14 09:59:05;;;;;;;1.50;0.40;;;15.70;63.70;;;;;;5035122;28;20060;-26
2022/02/14 10:01:31;;;;;;;0.90;0.47;;;15.70;63.80;;;;;;5052112;28;20497;-26
2022/02/14 10:03:57;;;;;;;1.02;0.70;;;15.70;63.80;;;;;;5024050;28;20075;-26
2022/02/14 10:06:28;;;;;;;1.02;0.57;;;15.70;63.80;;;;;;5015636;28;20053;-26
2022/02/14 10:09:05;;;;;;;0.55;0.47;;;15.80;63.90;;;;;;5027939;28;20136;-26
2022/02/14 10:11:32;;;;;;;0.55;0.40;;;15.80;64.00;;;;;;5015725;28;20526;-26
2022/02/14 10:14:11;;;;;;;0.20;0.20;;;15.80;64.00;;;;;;5016527;28;20056;-26
2022/02/14 10:16:36;;;;;;;1.95;0.30;;;15.80;63.90;;;;;;5031843;28;20042;-26
2022/02/14 10:19:02;;;;;;;0.60;0.47;;;15.80;63.80;;;;;;5035100;28;20053;-26
2022/02/14 10:21:28;;;;;;;0.63;0.40;;;15.90;63.80;;;;;;5017139;28;20045;-26
2022/02/14 10:24:03;;;;;;;0.50;0.40;;;15.90;63.70;;;;;;5027996;28;20461;-26
2022/02/14 10:26:40;;;;;;;0.70;0.30;;;15.90;63.80;;;;;;5023660;28;20042;-26
2022/02/14 10:29:17;;;;;;;0.35;0.30;;;15.90;63.70;;;;;;5036150;28;20131;-26
2022/02/14 10:31:50;;;;;;;0.60;0.50;;;15.90;63.50;;;;;;5032302;28;20091;-26
2022/02/14 10:34:17;;;;;;;0.77;0.50;;;16.00;64.40;;;;;;5035055;28;20134;-25
2022/02/14 10:36:44;;;;;;;0.32;0.30;;;15.90;63.90;;;;;;5049297;28;20036;-26
2022/02/14 10:39:18;;;;;;;0.68;0.52;;;15.90;64.60;;;;;;5055842;28;20099;-26
2022/02/14 10:41:45;;;;;;;0.50;0.20;;;16.00;65.40;;;;;;5042437;28;20102;-26
2022/02/14 10:47:07;;;;;;;0.82;0.50;;;15.90;64.60;;;;;;5028679;28;20075;-26
2022/02/14 10:49:32;;;;;;;1.38;0.20;;;16.00;64.40;;;;;;5022131;28;20080;-26
2022/02/14 10:52:05;;;;;;;0.40;0.20;;;16.00;64.40;;;;;;5028759;28;20049;-26
2022/02/14 10:54:35;;;;;;;3.25;0.28;;;16.00;64.30;;;;;;5028450;28;20072;-27
2022/02/14 10:57:01;;;;;;;0.95;0.40;;;16.10;64.20;;;;;;5017659;28;20450;-27
2022/02/14 10:59:29;;;;;;;0.60;0.30;;;16.10;64.00;;;;;;5016921;28;20049;-27
2022/02/14 11:01:54;;;;;;;0.50;0.40;;;16.10;64.00;;;;;;5022362;28;20076;-27
2022/02/14 11:04:20;;;;;;;0.60;0.43;;;16.10;64.00;;;;;;5018545;28;20050;-27
2022/02/14 11:06:45;;;;;;;0.40;0.40;;;16.10;64.00;;;;;;5021358;28;20075;-27
2022/02/14 11:09:11;;;;;;;0.50;0.20;;;16.10;63.80;;;;;;5033935;28;20054;-27
2022/02/14 11:11:37;;;;;;;1.10;0.25;;;16.10;63.90;;;;;;5038545;28;20037;-27
2022/02/14 11:14:03;;;;;;;1.45;0.35;;;16.10;64.70;;;;;;5055121;28;20115;-27
2022/02/14 11:16:29;;;;;;;0.50;0.32;;;16.10;63.80;;;;;;5062963;28;20044;-27
2022/02/14 11:18:55;;;;;;;0.88;0.50;;;16.10;63.90;;;;;;5073896;28;20053;-27
2022/02/14 11:21:23;;;;;;;3.78;0.52;;;16.10;63.80;;;;;;5057767;28;20398;-27
2022/02/14 11:23:52;;;;;;;1.02;0.20;;;16.20;63.70;;;;;;5071819;28;20127;-27
2022/02/14 11:26:36;;;;;;;1.35;0.30;;;16.20;63.60;;;;;;5068528;28;20041;-27
2022/02/14 11:29:14;;;;;;;1.08;0.30;;;16.20;63.60;;;;;;5047607;28;20114;-27
2022/02/14 11:31:39;;;;;;;0.38;0.20;;;16.20;63.50;;;;;;5054461;28;20048;-27
2022/02/14 11:34:05;;;;;;;0.52;0.52;;;16.20;63.50;;;;;;5060812;28;20037;-27
2022/02/14 11:36:33;;;;;;;0.28;0.25;;;16.20;63.50;;;;;;5082572;28;20417;-27
2022/02/14 11:39:06;;;;;;;0.32;0.20;;;16.20;63.40;;;;;;5066270;28;20049;-27
2022/02/14 11:41:40;;;;;;;1.00;0.30;;;16.30;63.30;;;;;;5054400;28;20045;-27
2022/02/14 11:44:21;;;;;;;0.30;0.20;;;16.30;63.20;;;;;;5055105;28;20069;-27
2022/02/14 11:46:56;;;;;;;0.40;0.20;;;16.30;63.20;;;;;;5066533;28;20048;-27
2022/02/14 11:49:22;;;;;;;0.40;0.30;;;16.30;63.10;;;;;;5059824;28;20163;-26
2022/02/14 11:51:58;;;;;;;0.57;0.20;;;16.30;63.00;;;;;;5073940;28;20141;-27
2022/02/14 11:54:37;;;;;;;0.32;0.30;;;16.30;63.00;;;;;;5072316;28;20447;-27
2022/02/14 11:57:19;;;;;;;0.30;0.10;;;16.30;63.10;;;;;;5059047;28;20480;-27
2022/02/14 11:59:45;;;;;;;0.45;0.30;;;16.30;63.20;;;;;;5063073;28;20044;-27
2022/02/14 12:02:11;;;;;;;0.30;0.25;;;16.30;63.10;;;;;;5060195;28;20052;-27
2022/02/14 12:04:41;;;;;;;0.38;0.35;;;16.20;63.20;;;;;;5060082;28;20504;-28
2022/02/14 12:07:26;;;;;;;0.43;0.30;;;16.20;63.20;;;;;;5065339;28;20673;-27
2022/02/14 12:09:58;;;;;;;0.40;0.30;;;16.20;63.20;;;;;;5065982;28;20450;-27
2022/02/14 12:12:45;;;;;;;0.60;0.15;;;16.20;63.30;;;;;;5057281;28;20573;-27
2022/02/14 12:20:39;;;;;;;0.45;0.22;;;16.20;63.60;;;;;;5072892;28;23099;-27
2022/02/14 12:23:05;;;;;;;1.02;0.30;;;16.20;64.80;;;;;;5067981;28;20048;-27
2022/02/14 12:25:31;;;;;;;1.20;0.38;;;16.20;63.70;;;;;;5073355;28;20044;-27
2022/02/14 12:28:00;;;;;;;0.20;0.20;;;16.20;64.10;;;;;;5066354;28;20037;-27
2022/02/14 12:30:26;;;;;;;0.50;0.40;;;16.20;64.20;;;;;;5068811;28;20041;-27
2022/02/14 12:32:58;;;;;;;2.83;0.30;;;16.20;64.30;;;;;;5071837;28;20048;-27
2022/02/14 12:35:46;;;;;;;0.57;0.32;;;16.20;64.70;;;;;;5061933;28;20068;-27
2022/02/14 12:38:12;;;;;;;1.95;0.25;;;16.20;64.70;;;;;;5072467;28;20128;-27
2022/02/14 12:40:48;;;;;;;0.38;0.30;;;16.20;64.70;;;;;;5074737;28;20139;-27
2022/02/14 12:43:27;;;;;;;0.52;0.28;;;16.20;64.80;;;;;;5065664;28;20155;-27
2022/02/14 12:45:54;;;;;;;0.40;0.20;;;16.30;64.30;;;;;;5072498;28;20510;-27
2022/02/14 12:48:43;;;;;;;2.67;0.35;;;16.20;64.30;;;;;;5061248;28;20049;-26
2022/02/14 12:51:10;;;;;;;0.25;0.20;;;16.20;64.40;;;;;;5072566;28;20047;-27
2022/02/14 12:53:36;;;;;;;0.20;0.10;;;16.20;64.40;;;;;;5076769;28;20040;-27
2022/02/14 12:56:19;;;;;;;1.33;0.50;;;16.20;64.50;;;;;;5065154;28;20048;-27
2022/02/14 12:58:50;;;;;;;0.57;0.38;;;16.20;65.70;;;;;;5073371;28;20123;-27